Time;durP1;ratioP1;P1;durP2;ratioP2;P2;SDS_P1;SDS_P2;PMS_P1;PMS_P2;Temp;Humidity;BMP_temperature;BMP_pressure;BME280_temperature;BME280_humidity;BME280_pressure;Samples;Min_cycle;Max_cycle;Signal;HPM_P1;HPM_P2
2022/05/31 00:00:24;;;;;;;3.70;2.20;;;;;;;;;;5000751;28;20683;-66
2022/05/31 00:02:49;;;;;;;6.65;1.73;;;;;;;;;;5001880;28;20694;-66
2022/05/31 00:05:15;;;;;;;4.00;1.80;;;;;;;;;;5001110;28;20216;-66
2022/05/31 00:07:41;;;;;;;3.58;1.60;;;;;;;;;;5001081;28;20213;-65
2022/05/31 00:10:06;;;;;;;3.40;1.77;;;;;;;;;;4995046;28;20307;-64
2022/05/31 00:12:32;;;;;;;6.43;1.90;;;;;;;;;;5008929;28;20433;-65
2022/05/31 00:14:58;;;;;;;6.75;2.50;;;;;;;;;;5007806;28;20228;-65
2022/05/31 00:17:23;;;;;;;4.13;2.08;;;;;;;;;;4999679;28;20544;-66
2022/05/31 00:19:48;;;;;;;7.47;2.85;;;;;;;;;;5001341;28;20684;-65
2022/05/31 00:22:16;;;;;;;4.88;2.20;;;;;;;;;;5000556;28;20322;-65
2022/05/31 00:24:41;;;;;;;5.70;2.03;;;;;;;;;;5003256;28;20221;-65
2022/05/31 00:27:07;;;;;;;4.63;2.10;;;;;;;;;;5000640;28;20256;-65
2022/05/31 00:29:32;;;;;;;5.47;1.90;;;;;;;;;;4981855;28;20209;-66
2022/05/31 00:31:58;;;;;;;3.60;1.95;;;;;;;;;;4990588;28;20213;-66
2022/05/31 00:34:23;;;;;;;3.28;2.03;;;;;;;;;;4989185;28;20545;-65
2022/05/31 00:36:49;;;;;;;5.38;2.10;;;;;;;;;;5007889;28;20578;-66
2022/05/31 00:39:14;;;;;;;4.13;2.20;;;;;;;;;;5011250;28;20232;-66
2022/05/31 00:41:40;;;;;;;4.72;2.42;;;;;;;;;;5016639;28;20621;-66
2022/05/31 00:44:06;;;;;;;6.35;2.40;;;;;;;;;;4988878;28;20681;-66
2022/05/31 00:46:48;;;;;;;5.20;2.60;;;;;;;;;;5001001;28;20220;-66
2022/05/31 00:49:15;;;;;;;5.07;2.30;;;;;;;;;;5015831;28;20816;-65
2022/05/31 00:51:44;;;;;;;4.30;2.35;;;;;;;;;;5015905;28;20208;-66
2022/05/31 00:54:11;;;;;;;7.13;2.30;;;;;;;;;;5000720;28;20235;-65
2022/05/31 00:56:37;;;;;;;4.45;2.67;;;;;;;;;;4997335;28;20513;-66
2022/05/31 00:59:04;;;;;;;8.05;2.53;;;;;;;;;;5011860;28;20265;-65
2022/05/31 01:01:30;;;;;;;3.55;2.33;;;;;;;;;;4999476;28;20219;-66
2022/05/31 01:03:56;;;;;;;6.10;2.60;;;;;;;;;;5019191;28;20239;-66
2022/05/31 01:06:21;;;;;;;4.95;2.50;;;;;;;;;;5004788;28;20543;-66
2022/05/31 01:08:46;;;;;;;4.93;2.40;;;;;;;;;;5004914;28;20675;-66
2022/05/31 01:11:13;;;;;;;5.15;2.80;;;;;;;;;;5004419;28;20219;-66
2022/05/31 01:13:38;;;;;;;4.93;2.50;;;;;;;;;;5004988;28;20200;-66
2022/05/31 01:16:04;;;;;;;5.15;2.90;;;;;;;;;;5004410;28;20546;-66
2022/05/31 01:18:30;;;;;;;6.57;2.92;;;;;;;;;;5011616;28;20702;-66
2022/05/31 01:20:55;;;;;;;3.28;2.30;;;;;;;;;;5011758;28;20208;-66
2022/05/31 01:23:21;;;;;;;5.75;2.88;;;;;;;;;;4992923;28;20298;-66
2022/05/31 01:25:54;;;;;;;6.47;2.70;;;;;;;;;;5000390;28;20227;-66
2022/05/31 01:28:33;;;;;;;6.07;2.80;;;;;;;;;;5019441;28;20220;-66
2022/05/31 01:31:07;;;;;;;4.60;2.78;;;;;;;;;;5019630;28;20243;-67
2022/05/31 01:33:34;;;;;;;4.93;2.60;;;;;;;;;;4999804;28;20232;-66
2022/05/31 01:36:00;;;;;;;6.50;2.80;;;;;;;;;;5000284;28;20208;-66
2022/05/31 01:38:28;;;;;;;6.07;2.90;;;;;;;;;;4984968;28;20646;-66
2022/05/31 01:40:58;;;;;;;5.05;3.10;;;;;;;;;;5012348;28;20809;-67
2022/05/31 01:43:23;;;;;;;4.13;2.78;;;;;;;;;;5004986;28;20217;-66
2022/05/31 01:45:51;;;;;;;5.90;2.70;;;;;;;;;;4976612;28;20209;-67
2022/05/31 01:48:17;;;;;;;7.25;3.03;;;;;;;;;;5002028;28;20244;-66
2022/05/31 01:50:42;;;;;;;5.30;2.72;;;;;;;;;;5004291;28;20219;-67
2022/05/31 01:53:07;;;;;;;6.00;2.78;;;;;;;;;;5018068;28;20243;-65
2022/05/31 01:55:33;;;;;;;5.32;2.70;;;;;;;;;;5019573;28;20741;-66
2022/05/31 01:57:59;;;;;;;5.15;2.70;;;;;;;;;;5004080;28;20232;-66
2022/05/31 02:00:24;;;;;;;7.13;2.72;;;;;;;;;;5017792;28;20228;-66
2022/05/31 02:02:50;;;;;;;6.97;3.17;;;;;;;;;;4999144;28;20659;-66
2022/05/31 02:05:15;;;;;;;4.22;2.50;;;;;;;;;;4995356;28;20220;-66
2022/05/31 02:07:40;;;;;;;5.88;2.83;;;;;;;;;;4995449;28;20204;-66
2022/05/31 02:10:06;;;;;;;5.57;2.50;;;;;;;;;;5014657;28;20209;-65
2022/05/31 02:12:31;;;;;;;7.55;2.90;;;;;;;;;;5004102;28;20293;-66
2022/05/31 02:14:57;;;;;;;4.72;2.60;;;;;;;;;;5003121;28;20303;-66
2022/05/31 02:17:22;;;;;;;4.22;2.65;;;;;;;;;;5003215;28;20208;-66
2022/05/31 02:19:48;;;;;;;3.72;2.60;;;;;;;;;;5003678;28;20222;-66
2022/05/31 02:22:14;;;;;;;5.28;2.88;;;;;;;;;;5003131;28;20618;-66
2022/05/31 02:24:40;;;;;;;6.15;2.90;;;;;;;;;;4988071;28;20217;-65
2022/05/31 02:27:05;;;;;;;6.95;2.58;;;;;;;;;;4995819;28;20217;-64
2022/05/31 02:29:32;;;;;;;4.72;2.75;;;;;;;;;;4990619;28;20213;-65
2022/05/31 02:31:57;;;;;;;4.78;2.80;;;;;;;;;;5005256;28;20552;-65
2022/05/31 02:34:23;;;;;;;6.28;3.00;;;;;;;;;;4998298;28;20247;-65
2022/05/31 02:36:49;;;;;;;4.75;2.80;;;;;;;;;;4998321;28;20372;-65
2022/05/31 02:39:15;;;;;;;5.00;2.95;;;;;;;;;;5002395;28;20239;-65
2022/05/31 02:41:40;;;;;;;7.63;2.97;;;;;;;;;;5002208;28;20216;-65
2022/05/31 02:44:05;;;;;;;6.78;2.80;;;;;;;;;;4990508;28;20213;-66
2022/05/31 02:46:30;;;;;;;6.07;2.80;;;;;;;;;;4984223;28;20216;-66
2022/05/31 02:48:56;;;;;;;6.00;2.72;;;;;;;;;;4976424;28;20276;-66
2022/05/31 02:51:21;;;;;;;3.55;2.63;;;;;;;;;;4990738;28;20209;-66
2022/05/31 02:53:46;;;;;;;5.03;2.85;;;;;;;;;;4975978;28;20393;-66
2022/05/31 02:56:11;;;;;;;5.68;2.83;;;;;;;;;;4981797;28;20212;-65
2022/05/31 02:58:37;;;;;;;6.13;3.42;;;;;;;;;;4983653;28;20229;-65
2022/05/31 03:01:02;;;;;;;6.28;3.00;;;;;;;;;;4983321;28;20236;-65
2022/05/31 03:03:27;;;;;;;6.38;3.20;;;;;;;;;;4997404;28;20675;-66
2022/05/31 03:05:53;;;;;;;5.07;3.40;;;;;;;;;;4983776;28;20224;-65
2022/05/31 03:08:18;;;;;;;5.35;3.10;;;;;;;;;;4997982;28;20221;-65
2022/05/31 03:10:45;;;;;;;6.18;3.13;;;;;;;;;;4978824;28;20223;-66
2022/05/31 03:13:11;;;;;;;5.63;3.55;;;;;;;;;;4994484;28;20208;-65
2022/05/31 03:15:37;;;;;;;7.53;4.05;;;;;;;;;;4994497;28;20208;-65
2022/05/31 03:18:04;;;;;;;6.03;3.50;;;;;;;;;;4997234;28;20613;-64
2022/05/31 03:20:32;;;;;;;7.63;3.78;;;;;;;;;;5002618;28;20307;-65
2022/05/31 03:23:06;;;;;;;6.65;3.50;;;;;;;;;;5016731;28;20204;-65
2022/05/31 03:25:31;;;;;;;8.38;3.72;;;;;;;;;;5008948;28;20208;-65
2022/05/31 03:27:57;;;;;;;8.45;3.67;;;;;;;;;;4982898;28;20683;-65
2022/05/31 03:30:22;;;;;;;7.20;3.75;;;;;;;;;;5001789;28;20223;-65
2022/05/31 03:32:48;;;;;;;8.82;4.15;;;;;;;;;;4985964;28;20304;-65
2022/05/31 03:35:13;;;;;;;7.50;3.47;;;;;;;;;;4992702;28;21065;-64
2022/05/31 03:37:40;;;;;;;7.20;4.00;;;;;;;;;;4994249;28;20220;-65
2022/05/31 03:40:06;;;;;;;6.38;4.25;;;;;;;;;;4995788;28;20212;-64
2022/05/31 03:42:31;;;;;;;7.70;4.05;;;;;;;;;;5000973;28;20278;-64
2022/05/31 03:44:56;;;;;;;6.78;4.00;;;;;;;;;;4983418;28;20270;-65
2022/05/31 03:47:22;;;;;;;8.23;4.00;;;;;;;;;;4982009;28;20560;-65
2022/05/31 03:49:47;;;;;;;6.50;4.45;;;;;;;;;;5001769;28;20753;-65
2022/05/31 03:52:13;;;;;;;7.45;4.03;;;;;;;;;;5001410;28;20612;-65
2022/05/31 03:54:38;;;;;;;8.40;4.88;;;;;;;;;;5016427;28;20232;-65
2022/05/31 03:57:05;;;;;;;8.20;4.43;;;;;;;;;;5009241;28;20215;-65
2022/05/31 03:59:34;;;;;;;7.53;4.88;;;;;;;;;;5008318;28;20769;-66
2022/05/31 04:01:59;;;;;;;7.03;4.22;;;;;;;;;;4994142;28;20208;-65
2022/05/31 04:04:25;;;;;;;8.02;5.03;;;;;;;;;;5015911;28;20215;-65
2022/05/31 04:06:50;;;;;;;11.77;5.47;;;;;;;;;;5001442;28;20814;-65
2022/05/31 04:09:15;;;;;;;8.77;5.05;;;;;;;;;;5001371;28;20227;-65
2022/05/31 04:11:40;;;;;;;10.70;5.07;;;;;;;;;;5001900;28;20208;-64
2022/05/31 04:14:06;;;;;;;6.63;4.45;;;;;;;;;;4999152;28;20212;-65
2022/05/31 04:16:32;;;;;;;8.65;5.20;;;;;;;;;;5001836;28;20208;-65
2022/05/31 04:18:57;;;;;;;10.80;4.90;;;;;;;;;;5011154;28;20354;-65
2022/05/31 04:21:23;;;;;;;6.40;4.70;;;;;;;;;;4992796;28;20224;-65
2022/05/31 04:24:08;;;;;;;7.40;5.00;;;;;;;;;;4986224;28;20236;-65
2022/05/31 04:26:36;;;;;;;7.55;4.70;;;;;;;;;;4995828;28;20680;-65
2022/05/31 04:29:01;;;;;;;8.23;4.63;;;;;;;;;;4999521;28;20697;-64
2022/05/31 04:31:26;;;;;;;7.93;4.43;;;;;;;;;;5014129;28;20301;-65
2022/05/31 04:33:52;;;;;;;7.88;4.18;;;;;;;;;;5001605;28;20689;-66
2022/05/31 04:36:17;;;;;;;8.40;4.82;;;;;;;;;;5000294;28;20266;-65
2022/05/31 04:38:43;;;;;;;9.50;4.25;;;;;;;;;;5001557;28;20224;-65
2022/05/31 04:41:14;;;;;;;8.73;4.78;;;;;;;;;;4996617;28;20266;-65
2022/05/31 04:43:40;;;;;;;8.75;5.05;;;;;;;;;;5000190;28;20205;-66
2022/05/31 04:46:11;;;;;;;6.55;4.45;;;;;;;;;;4973585;28;20411;-65
2022/05/31 04:48:37;;;;;;;10.18;4.75;;;;;;;;;;5011923;28;20220;-65
2022/05/31 04:51:02;;;;;;;8.18;4.68;;;;;;;;;;4999923;28;20219;-64
2022/05/31 04:53:27;;;;;;;6.85;4.40;;;;;;;;;;5000856;28;20208;-64
2022/05/31 04:55:58;;;;;;;7.53;4.45;;;;;;;;;;5000817;28;21124;-65
2022/05/31 04:58:23;;;;;;;7.25;4.45;;;;;;;;;;5000790;28;20224;-65
2022/05/31 05:00:49;;;;;;;8.00;4.60;;;;;;;;;;5001145;28;20235;-66
2022/05/31 05:03:14;;;;;;;7.82;5.13;;;;;;;;;;4997675;28;20220;-64
2022/05/31 05:05:39;;;;;;;8.25;5.35;;;;;;;;;;4994202;28;20292;-65
2022/05/31 05:08:04;;;;;;;8.45;5.43;;;;;;;;;;4992800;28;20786;-64
2022/05/31 05:10:30;;;;;;;8.38;5.50;;;;;;;;;;4994228;28;20223;-64
2022/05/31 05:12:55;;;;;;;9.25;5.80;;;;;;;;;;5000919;28;20212;-65
2022/05/31 05:15:20;;;;;;;11.55;6.13;;;;;;;;;;5000944;28;20223;-65
2022/05/31 05:17:45;;;;;;;9.10;5.95;;;;;;;;;;5000232;28;20684;-65
2022/05/31 05:20:11;;;;;;;9.07;5.47;;;;;;;;;;5000840;28;20270;-64
2022/05/31 05:22:36;;;;;;;8.02;5.82;;;;;;;;;;5016072;28;20589;-65
2022/05/31 05:25:01;;;;;;;9.15;5.95;;;;;;;;;;4983493;28;20584;-63
2022/05/31 05:27:27;;;;;;;8.57;5.90;;;;;;;;;;4975129;28;20217;-65
2022/05/31 05:32:36;;;;;;;9.18;6.18;;;;;;;;;;4980718;28;20216;-65
2022/05/31 05:35:01;;;;;;;8.20;5.53;;;;;;;;;;4981276;28;20206;-63
2022/05/31 05:37:26;;;;;;;10.02;5.97;;;;;;;;;;4981323;28;20225;-65
2022/05/31 05:39:52;;;;;;;12.40;6.47;;;;;;;;;;4997213;28;20225;-65
2022/05/31 05:42:17;;;;;;;10.77;6.22;;;;;;;;;;4984491;28;20253;-65
2022/05/31 05:44:42;;;;;;;12.50;6.22;;;;;;;;;;4985747;28;20307;-65
2022/05/31 05:47:08;;;;;;;10.38;6.68;;;;;;;;;;4989789;28;20684;-65
2022/05/31 05:49:34;;;;;;;11.15;7.38;;;;;;;;;;5026033;28;20883;-65
2022/05/31 05:52:00;;;;;;;10.38;6.95;;;;;;;;;;5013562;28;20241;-66
2022/05/31 05:54:25;;;;;;;11.02;6.60;;;;;;;;;;5012424;28;20228;-64
2022/05/31 05:56:51;;;;;;;11.50;6.63;;;;;;;;;;5012921;28;20200;-63
2022/05/31 05:59:17;;;;;;;10.40;6.50;;;;;;;;;;5013002;28;20793;-64
2022/05/31 06:01:45;;;;;;;12.13;7.50;;;;;;;;;;5014574;28;20216;-63
2022/05/31 06:04:13;;;;;;;13.05;7.30;;;;;;;;;;5013877;28;20250;-63
2022/05/31 06:06:39;;;;;;;9.38;6.82;;;;;;;;;;5012045;28;20216;-63
2022/05/31 06:09:05;;;;;;;10.68;7.13;;;;;;;;;;5012157;28;20886;-62
2022/05/31 06:11:38;;;;;;;9.10;6.68;;;;;;;;;;5013786;28;20562;-62
2022/05/31 06:14:12;;;;;;;12.20;7.10;;;;;;;;;;5013123;28;20208;-62
2022/05/31 06:16:38;;;;;;;10.75;7.35;;;;;;;;;;5013091;28;20219;-62
2022/05/31 06:19:06;;;;;;;10.32;6.90;;;;;;;;;;5013352;28;20363;-64
2022/05/31 06:21:31;;;;;;;9.93;6.90;;;;;;;;;;5009383;28;20223;-63
2022/05/31 06:23:56;;;;;;;9.48;6.75;;;;;;;;;;5009858;28;20204;-63
2022/05/31 06:26:22;;;;;;;9.15;6.55;;;;;;;;;;5012473;28;20288;-63
2022/05/31 06:28:47;;;;;;;10.57;6.70;;;;;;;;;;5012692;28;20671;-62
2022/05/31 06:31:12;;;;;;;11.75;7.25;;;;;;;;;;5007219;28;20215;-61
2022/05/31 06:33:37;;;;;;;10.63;6.70;;;;;;;;;;5005985;28;20207;-63
2022/05/31 06:36:04;;;;;;;12.25;6.53;;;;;;;;;;5003041;28;20205;-61
2022/05/31 06:38:30;;;;;;;10.13;6.82;;;;;;;;;;5004661;28;20217;-62
2022/05/31 06:40:56;;;;;;;9.00;6.47;;;;;;;;;;5003099;28;20212;-63
2022/05/31 06:43:21;;;;;;;11.07;6.97;;;;;;;;;;5007487;28;20212;-66
2022/05/31 06:45:47;;;;;;;9.55;7.18;;;;;;;;;;5013683;28;20238;-62
2022/05/31 06:48:12;;;;;;;11.32;6.90;;;;;;;;;;5025280;28;20261;-64
2022/05/31 06:50:37;;;;;;;8.73;6.57;;;;;;;;;;5028705;28;20283;-65
2022/05/31 06:58:30;;;;;;;11.48;7.15;;;;;;;;;;5005259;28;20746;-65
2022/05/31 07:00:57;;;;;;;9.43;7.00;;;;;;;;;;5031096;28;20216;-65
2022/05/31 07:03:22;;;;;;;9.90;7.05;;;;;;;;;;5015762;28;20201;-65
2022/05/31 07:05:47;;;;;;;10.15;6.97;;;;;;;;;;5006478;28;20449;-66
2022/05/31 07:08:13;;;;;;;8.73;6.80;;;;;;;;;;5012617;28;20726;-64
2022/05/31 07:10:39;;;;;;;12.98;7.70;;;;;;;;;;5012349;28;20281;-65
2022/05/31 07:13:04;;;;;;;11.77;7.40;;;;;;;;;;5010152;28;20578;-64
2022/05/31 07:15:31;;;;;;;10.57;7.68;;;;;;;;;;5012463;28;20221;-65
2022/05/31 07:17:56;;;;;;;15.23;8.00;;;;;;;;;;5011809;28;20220;-65
2022/05/31 07:20:22;;;;;;;11.05;7.57;;;;;;;;;;5012127;28;20218;-65
2022/05/31 07:22:47;;;;;;;11.65;7.75;;;;;;;;;;5012976;28;20303;-66
2022/05/31 07:25:12;;;;;;;11.52;7.40;;;;;;;;;;5011658;28;20675;-66
2022/05/31 07:27:38;;;;;;;12.23;7.28;;;;;;;;;;4993103;28;20213;-67
2022/05/31 07:30:03;;;;;;;11.90;7.57;;;;;;;;;;4990938;28;20215;-65
2022/05/31 07:32:29;;;;;;;11.35;7.80;;;;;;;;;;5001661;28;20751;-66
2022/05/31 07:34:54;;;;;;;12.73;7.43;;;;;;;;;;5012285;28;20209;-66
2022/05/31 07:37:20;;;;;;;11.55;7.50;;;;;;;;;;5009773;28;20216;-66
2022/05/31 07:39:47;;;;;;;12.10;8.75;;;;;;;;;;5012202;28;20217;-66
2022/05/31 07:42:12;;;;;;;13.90;8.40;;;;;;;;;;5011918;28;20274;-65
2022/05/31 07:44:37;;;;;;;13.35;8.43;;;;;;;;;;4998477;28;20217;-67
2022/05/31 07:47:03;;;;;;;12.73;7.70;;;;;;;;;;4991646;28;20213;-65
2022/05/31 07:49:29;;;;;;;15.65;8.30;;;;;;;;;;4992401;28;20574;-66
2022/05/31 07:51:54;;;;;;;14.98;8.63;;;;;;;;;;4991850;28;20568;-65
2022/05/31 07:54:19;;;;;;;11.75;8.93;;;;;;;;;;4992093;28;20271;-66
2022/05/31 07:56:44;;;;;;;10.73;8.00;;;;;;;;;;4992912;28;20303;-66
2022/05/31 07:59:10;;;;;;;9.82;7.53;;;;;;;;;;4990991;28;20693;-65
2022/05/31 08:01:35;;;;;;;11.55;7.97;;;;;;;;;;4992165;28;20363;-66
2022/05/31 08:04:00;;;;;;;13.23;7.53;;;;;;;;;;4990428;28;20255;-65
2022/05/31 08:06:29;;;;;;;14.07;8.65;;;;;;;;;;4991561;28;20578;-66
2022/05/31 08:08:56;;;;;;;11.25;8.20;;;;;;;;;;4991265;28;20228;-66
2022/05/31 08:11:23;;;;;;;13.70;8.20;;;;;;;;;;4992078;28;20216;-66
2022/05/31 08:13:49;;;;;;;11.60;7.97;;;;;;;;;;4990321;28;20231;-66
2022/05/31 08:16:16;;;;;;;11.20;7.75;;;;;;;;;;4991247;28;20688;-66
2022/05/31 08:18:42;;;;;;;15.23;7.78;;;;;;;;;;4990730;28;20677;-67
2022/05/31 08:21:12;;;;;;;11.80;8.57;;;;;;;;;;4989739;28;20205;-65
2022/05/31 08:23:38;;;;;;;13.90;7.80;;;;;;;;;;4991142;28;20209;-66
2022/05/31 08:26:03;;;;;;;11.77;7.65;;;;;;;;;;4991834;28;20213;-66
2022/05/31 08:28:28;;;;;;;14.15;7.35;;;;;;;;;;4990120;28;20574;-66
2022/05/31 08:30:55;;;;;;;11.77;8.07;;;;;;;;;;4991631;28;20205;-66
2022/05/31 08:33:21;;;;;;;12.27;7.25;;;;;;;;;;5000976;28;20216;-66
2022/05/31 08:35:46;;;;;;;12.93;8.05;;;;;;;;;;5009493;28;20212;-66
2022/05/31 08:38:12;;;;;;;10.80;7.63;;;;;;;;;;5010010;28;20248;-66
2022/05/31 08:40:50;;;;;;;10.70;6.97;;;;;;;;;;5009684;28;20236;-67
2022/05/31 08:43:16;;;;;;;11.38;7.00;;;;;;;;;;5007432;28;20671;-66
2022/05/31 08:45:45;;;;;;;12.77;7.45;;;;;;;;;;4973928;28;20669;-65
2022/05/31 08:48:22;;;;;;;11.68;8.02;;;;;;;;;;4989138;28;20719;-65
2022/05/31 08:53:40;;;;;;;14.57;8.20;;;;;;;;;;4996785;28;20629;-66
2022/05/31 08:59:00;;;;;;;11.40;7.97;;;;;;;;;;4990405;28;20239;-66
2022/05/31 09:01:27;;;;;;;11.93;7.40;;;;;;;;;;4989872;28;20209;-66
2022/05/31 09:04:00;;;;;;;12.30;7.97;;;;;;;;;;4991168;28;20209;-66
2022/05/31 09:06:27;;;;;;;10.60;7.90;;;;;;;;;;4989811;28;20267;-67
2022/05/31 09:08:56;;;;;;;10.50;8.10;;;;;;;;;;4990726;28;20220;-66
2022/05/31 09:11:28;;;;;;;11.73;7.93;;;;;;;;;;4991142;28;20671;-65
2022/05/31 09:13:55;;;;;;;10.98;7.07;;;;;;;;;;4991949;28;20217;-67
2022/05/31 09:16:35;;;;;;;11.85;7.30;;;;;;;;;;4993028;28;20224;-66
2022/05/31 09:19:03;;;;;;;11.80;8.13;;;;;;;;;;4994701;28;20225;-64
2022/05/31 09:21:30;;;;;;;11.90;7.88;;;;;;;;;;4994017;28;20687;-66
2022/05/31 09:23:55;;;;;;;10.05;7.00;;;;;;;;;;4994659;28;20205;-66
2022/05/31 09:26:23;;;;;;;11.70;7.22;;;;;;;;;;4994988;28;20563;-66
2022/05/31 09:28:52;;;;;;;9.50;6.22;;;;;;;;;;4995584;28;20288;-67
2022/05/31 09:31:20;;;;;;;9.32;6.72;;;;;;;;;;4993546;28;20317;-68
2022/05/31 09:33:50;;;;;;;9.18;7.05;;;;;;;;;;4977559;28;20573;-69
2022/05/31 09:36:19;;;;;;;11.77;7.43;;;;;;;;;;5012138;28;20465;-67
2022/05/31 09:38:51;;;;;;;9.60;6.85;;;;;;;;;;4996358;28;20308;-69
2022/05/31 09:41:22;;;;;;;12.02;6.93;;;;;;;;;;5013161;28;20296;-68
2022/05/31 09:43:49;;;;;;;8.18;6.18;;;;;;;;;;5006407;28;20221;-74
2022/05/31 09:46:17;;;;;;;11.13;6.63;;;;;;;;;;4998720;28;20211;-70
2022/05/31 09:48:49;;;;;;;10.27;6.72;;;;;;;;;;4993613;28;20247;-70
2022/05/31 09:51:23;;;;;;;9.57;6.88;;;;;;;;;;4993913;28;20326;-69
2022/05/31 09:59:21;;;;;;;10.82;6.68;;;;;;;;;;4992123;28;20235;-68
2022/05/31 10:01:47;;;;;;;11.15;6.47;;;;;;;;;;4993222;28;20227;-70
2022/05/31 10:04:13;;;;;;;9.05;6.38;;;;;;;;;;4993271;28;20630;-67
2022/05/31 10:06:49;;;;;;;9.52;6.00;;;;;;;;;;4992706;28;20300;-67
2022/05/31 10:09:15;;;;;;;11.30;6.18;;;;;;;;;;4993439;28;20364;-67
2022/05/31 10:11:48;;;;;;;8.68;6.50;;;;;;;;;;5006033;28;20234;-67
2022/05/31 10:14:14;;;;;;;10.45;6.18;;;;;;;;;;5012674;28;20632;-67
2022/05/31 10:16:39;;;;;;;9.30;6.38;;;;;;;;;;5013707;28;20212;-67
2022/05/31 10:19:05;;;;;;;11.05;6.53;;;;;;;;;;5012753;28;20256;-67
2022/05/31 10:21:32;;;;;;;9.18;5.80;;;;;;;;;;5011109;28;20213;-67
2022/05/31 10:24:08;;;;;;;8.20;6.07;;;;;;;;;;5012547;28;20216;-67
2022/05/31 10:26:34;;;;;;;7.82;5.32;;;;;;;;;;5011460;28;20295;-67
2022/05/31 10:29:00;;;;;;;7.55;5.35;;;;;;;;;;5013734;28;20292;-68
2022/05/31 10:31:33;;;;;;;8.35;5.05;;;;;;;;;;5013163;28;20263;-66
2022/05/31 10:33:59;;;;;;;9.32;4.95;;;;;;;;;;4995629;28;20288;-67
2022/05/31 10:36:25;;;;;;;8.82;5.30;;;;;;;;;;4993492;28;20315;-69
2022/05/31 10:38:51;;;;;;;11.27;5.80;;;;;;;;;;4993917;28;20225;-69
2022/05/31 10:41:19;;;;;;;7.45;4.90;;;;;;;;;;4992805;28;20233;-69
2022/05/31 10:43:45;;;;;;;7.38;4.55;;;;;;;;;;4998750;28;20204;-68
2022/05/31 10:46:13;;;;;;;8.90;4.85;;;;;;;;;;5011643;28;20216;-68
2022/05/31 10:48:41;;;;;;;8.98;4.80;;;;;;;;;;5012328;28;20217;-68
2022/05/31 10:51:09;;;;;;;6.68;3.88;;;;;;;;;;5011502;28;20232;-68
2022/05/31 10:53:37;;;;;;;8.35;4.30;;;;;;;;;;5011842;28;20212;-67
2022/05/31 10:56:10;;;;;;;6.03;4.07;;;;;;;;;;5011099;28;20216;-68
2022/05/31 10:58:35;;;;;;;7.18;4.50;;;;;;;;;;5012742;28;20223;-68
2022/05/31 11:01:14;;;;;;;6.65;4.15;;;;;;;;;;5012404;28;20217;-66
2022/05/31 11:03:58;;;;;;;5.93;3.88;;;;;;;;;;5011379;28;20223;-68
2022/05/31 11:06:37;;;;;;;6.32;3.95;;;;;;;;;;5012704;28;20220;-68
2022/05/31 11:11:52;;;;;;;5.88;3.15;;;;;;;;;;5012808;28;20296;-68
2022/05/31 11:14:22;;;;;;;8.00;3.30;;;;;;;;;;4994642;28;20266;-67
2022/05/31 11:17:01;;;;;;;3.85;3.00;;;;;;;;;;5010666;28;20246;-67
2022/05/31 11:19:45;;;;;;;4.72;3.13;;;;;;;;;;5012718;28;20216;-68
2022/05/31 11:22:16;;;;;;;6.63;3.03;;;;;;;;;;5012198;28;20213;-67
2022/05/31 11:24:49;;;;;;;6.82;3.10;;;;;;;;;;5012116;28;20688;-66
2022/05/31 11:27:22;;;;;;;5.97;3.20;;;;;;;;;;5012287;28;20672;-65
2022/05/31 11:29:57;;;;;;;5.45;3.53;;;;;;;;;;5010464;28;20220;-65
2022/05/31 11:32:30;;;;;;;5.28;2.85;;;;;;;;;;5009050;28;20247;-66
2022/05/31 11:35:07;;;;;;;6.10;3.53;;;;;;;;;;4993955;28;20554;-65
2022/05/31 11:37:35;;;;;;;7.22;2.63;;;;;;;;;;5002080;28;20220;-66
2022/05/31 11:40:09;;;;;;;4.47;2.60;;;;;;;;;;4993799;28;20228;-66
2022/05/31 11:42:35;;;;;;;4.97;2.78;;;;;;;;;;5012293;28;20303;-64
2022/05/31 11:45:04;;;;;;;4.88;2.80;;;;;;;;;;4999758;28;20291;-66
2022/05/31 11:47:48;;;;;;;4.68;2.90;;;;;;;;;;5011562;28;20208;-65
2022/05/31 11:50:16;;;;;;;5.22;2.53;;;;;;;;;;5011964;28;20235;-65
2022/05/31 11:52:51;;;;;;;6.70;2.55;;;;;;;;;;5011819;28;20216;-64
2022/05/31 11:55:26;;;;;;;3.33;2.22;;;;;;;;;;5011626;28;20593;-64
2022/05/31 11:57:59;;;;;;;5.68;2.17;;;;;;;;;;5009879;28;20586;-65
2022/05/31 12:00:24;;;;;;;6.25;2.13;;;;;;;;;;5009602;28;20208;-64
2022/05/31 12:02:51;;;;;;;5.43;2.40;;;;;;;;;;5010952;28;20210;-64
2022/05/31 12:05:24;;;;;;;3.20;1.95;;;;;;;;;;5009921;28;20235;-64
2022/05/31 12:08:02;;;;;;;4.15;2.22;;;;;;;;;;5009492;28;20204;-64
2022/05/31 12:10:28;;;;;;;4.20;2.70;;;;;;;;;;5010374;28;20691;-64
2022/05/31 12:12:55;;;;;;;4.07;2.22;;;;;;;;;;5009788;28;20212;-65
2022/05/31 12:15:29;;;;;;;5.28;2.28;;;;;;;;;;5009823;28;20217;-65
2022/05/31 12:17:57;;;;;;;4.75;2.35;;;;;;;;;;5011704;28;20222;-64
2022/05/31 12:20:24;;;;;;;4.35;2.20;;;;;;;;;;5009441;28;20216;-64
2022/05/31 12:23:05;;;;;;;4.28;2.42;;;;;;;;;;5010506;28;20223;-65
2022/05/31 12:25:32;;;;;;;4.93;2.20;;;;;;;;;;5010087;28;20212;-65
2022/05/31 12:28:05;;;;;;;6.03;2.60;;;;;;;;;;5009832;28;20208;-65
2022/05/31 12:30:31;;;;;;;5.50;2.67;;;;;;;;;;5009897;28;20208;-65
2022/05/31 12:32:58;;;;;;;7.20;2.38;;;;;;;;;;5003092;28;20215;-64
2022/05/31 12:35:29;;;;;;;2.90;1.65;;;;;;;;;;4990114;28;20233;-63
2022/05/31 12:38:01;;;;;;;5.10;2.40;;;;;;;;;;4991712;28;20209;-64
2022/05/31 12:40:27;;;;;;;5.32;2.42;;;;;;;;;;4998958;28;20221;-65
2022/05/31 12:42:53;;;;;;;4.47;2.17;;;;;;;;;;4990921;28;20217;-64
2022/05/31 12:45:20;;;;;;;4.32;1.55;;;;;;;;;;5009979;28;20675;-64
2022/05/31 12:47:50;;;;;;;3.25;1.40;;;;;;;;;;5009158;28;20240;-65
2022/05/31 12:50:16;;;;;;;3.22;1.40;;;;;;;;;;5013232;28;20743;-63
2022/05/31 12:55:33;;;;;;;4.97;1.40;;;;;;;;;;5014496;28;20232;-63
2022/05/31 13:00:46;;;;;;;3.13;1.40;;;;;;;;;;5013479;28;20215;-65
2022/05/31 13:03:33;;;;;;;4.80;1.90;;;;;;;;;;5014048;28;20216;-64
2022/05/31 13:05:59;;;;;;;3.17;1.38;;;;;;;;;;5015184;28;20287;-65
2022/05/31 13:08:43;;;;;;;3.22;1.20;;;;;;;;;;5014154;28;20216;-64
2022/05/31 13:19:34;;;;;;;3.00;1.13;;;;;;;;;;5013332;28;20223;-64
2022/05/31 13:22:00;;;;;;;4.70;1.45;;;;;;;;;;5012919;28;20212;-65
2022/05/31 13:24:25;;;;;;;3.63;1.20;;;;;;;;;;5013593;28;20209;-65
2022/05/31 13:26:51;;;;;;;4.80;1.30;;;;;;;;;;5015041;28;20292;-64
2022/05/31 13:29:20;;;;;;;2.78;1.17;;;;;;;;;;5012293;28;20309;-64
2022/05/31 13:31:50;;;;;;;5.70;1.60;;;;;;;;;;5013320;28;20209;-64
2022/05/31 13:34:23;;;;;;;2.40;1.23;;;;;;;;;;4994548;28;20276;-63
2022/05/31 13:36:48;;;;;;;4.05;1.67;;;;;;;;;;4993164;28;20221;-64
2022/05/31 13:39:15;;;;;;;4.07;1.20;;;;;;;;;;4993587;28;20300;-65
2022/05/31 13:41:43;;;;;;;2.88;1.10;;;;;;;;;;4994002;28;20657;-64
2022/05/31 13:44:09;;;;;;;3.63;1.55;;;;;;;;;;5002632;28;20299;-63
2022/05/31 13:46:35;;;;;;;6.05;1.50;;;;;;;;;;5013148;28;20287;-65
2022/05/31 13:49:10;;;;;;;4.85;1.40;;;;;;;;;;5013766;28;20217;-64
2022/05/31 13:51:35;;;;;;;6.28;1.67;;;;;;;;;;5011251;28;20220;-64
2022/05/31 13:54:08;;;;;;;4.15;1.50;;;;;;;;;;5012677;28;20224;-63
2022/05/31 13:56:33;;;;;;;3.10;1.40;;;;;;;;;;5013150;28;20215;-64
2022/05/31 13:58:59;;;;;;;3.63;1.25;;;;;;;;;;5012839;28;20299;-65
2022/05/31 14:01:34;;;;;;;4.40;1.65;;;;;;;;;;5013439;28;20212;-64
2022/05/31 14:04:04;;;;;;;4.18;1.55;;;;;;;;;;5014105;28;20216;-64
2022/05/31 14:06:30;;;;;;;3.47;1.60;;;;;;;;;;5013149;28;20656;-65
2022/05/31 14:08:56;;;;;;;3.28;1.60;;;;;;;;;;5014454;28;20266;-64
2022/05/31 14:11:23;;;;;;;4.95;1.98;;;;;;;;;;5012878;28;20243;-64
2022/05/31 14:13:50;;;;;;;5.65;1.58;;;;;;;;;;5013784;28;20651;-65
2022/05/31 14:16:16;;;;;;;3.05;1.73;;;;;;;;;;5012284;28;20220;-67
2022/05/31 14:18:43;;;;;;;6.00;1.50;;;;;;;;;;5013173;28;20304;-64
2022/05/31 14:21:08;;;;;;;3.90;1.50;;;;;;;;;;5013613;28;20208;-64
2022/05/31 14:23:33;;;;;;;4.38;1.70;;;;;;;;;;5014258;28;20299;-62
2022/05/31 14:25:59;;;;;;;4.47;1.70;;;;;;;;;;5011767;28;20235;-63
2022/05/31 14:28:24;;;;;;;4.40;1.70;;;;;;;;;;5011767;28;20220;-64
2022/05/31 14:30:54;;;;;;;3.65;1.77;;;;;;;;;;5012630;28;20210;-63
2022/05/31 14:33:20;;;;;;;4.75;1.55;;;;;;;;;;5002097;28;20219;-64
2022/05/31 14:35:48;;;;;;;4.93;1.70;;;;;;;;;;4992908;28;20292;-63
2022/05/31 14:38:32;;;;;;;4.05;1.60;;;;;;;;;;4993649;28;20221;-64
2022/05/31 14:40:58;;;;;;;3.55;1.90;;;;;;;;;;4990965;28;20209;-63
2022/05/31 14:43:28;;;;;;;5.95;1.92;;;;;;;;;;5009284;28;20368;-65
2022/05/31 14:45:53;;;;;;;18.58;4.05;;;;;;;;;;4994366;28;20635;-66
2022/05/31 14:48:27;;;;;;;9.77;3.40;;;;;;;;;;4992598;28;20299;-66
2022/05/31 14:50:55;;;;;;;7.85;3.40;;;;;;;;;;4993905;28;20268;-66
2022/05/31 14:53:21;;;;;;;8.18;3.70;;;;;;;;;;4993047;28;20217;-65
2022/05/31 14:55:47;;;;;;;8.68;3.70;;;;;;;;;;4993376;28;20240;-65
2022/05/31 14:58:40;;;;;;;6.88;3.45;;;;;;;;;;4992612;28;20221;-65
2022/05/31 15:01:10;;;;;;;7.00;3.45;;;;;;;;;;4988907;28;20210;-65
2022/05/31 15:03:36;;;;;;;8.07;4.15;;;;;;;;;;5007945;28;20860;-65
2022/05/31 15:06:03;;;;;;;7.63;3.33;;;;;;;;;;4982645;28;20220;-64
2022/05/31 15:08:30;;;;;;;4.85;3.00;;;;;;;;;;4996960;28;20665;-65
2022/05/31 15:18:56;;;;;;;5.95;3.30;;;;;;;;;;5000303;28;20224;-65
2022/05/31 15:19:08;;;;;;;5.40;2.40;;;;;;;;;;5003734;28;20254;-65
2022/05/31 15:21:34;;;;;;;4.65;2.70;;;;;;;;;;4987182;28;20213;-67
2022/05/31 15:23:59;;;;;;;6.30;2.35;;;;;;;;;;4985747;28;20205;-66